Time;durP1;ratioP1;P1;durP2;ratioP2;P2;SDS_P1;SDS_P2;PMS_P1;PMS_P2;Temp;Humidity;BMP_temperature;BMP_pressure;BME280_temperature;BME280_humidity;BME280_pressure;Samples;Min_cycle;Max_cycle;Signal;HPM_P1;HPM_P2
2024/02/06 00:02:22;;;;;;;2.33;2.03;;;9.70;65.40;;;;;;4997996;28;20541;-78
2024/02/06 00:04:51;;;;;;;3.10;2.10;;;9.70;66.70;;;;;;4995252;28;20497;-79
2024/02/06 00:07:19;;;;;;;2.83;1.97;;;9.60;66.40;;;;;;4992074;28;20474;-78
2024/02/06 00:09:59;;;;;;;4.97;2.47;;;9.60;65.40;;;;;;4992911;28;21774;-80
2024/02/06 00:12:27;;;;;;;3.23;1.90;;;9.50;65.00;;;;;;4991034;28;20464;-78
2024/02/06 00:14:55;;;;;;;3.77;2.33;;;9.40;65.60;;;;;;4975296;28;20475;-79
2024/02/06 00:17:25;;;;;;;4.37;2.27;;;9.40;67.90;;;;;;4991900;28;20438;-79
2024/02/06 00:19:53;;;;;;;2.80;2.60;;;9.40;69.10;;;;;;4990710;28;20886;-79
2024/02/06 00:22:22;;;;;;;4.27;2.40;;;9.30;67.00;;;;;;4994696;28;20466;-79
2024/02/06 00:24:50;;;;;;;4.33;2.27;;;9.10;66.60;;;;;;4997478;28;20481;-78
2024/02/06 00:27:18;;;;;;;6.47;2.37;;;9.00;68.20;;;;;;4994740;28;20462;-81
2024/02/06 00:29:48;;;;;;;5.73;2.50;;;8.90;68.00;;;;;;4991270;28;20466;-78
2024/02/06 00:32:16;;;;;;;4.07;2.60;;;8.90;69.90;;;;;;4999515;28;20450;-78
2024/02/06 00:34:46;;;;;;;4.90;2.90;;;8.80;70.30;;;;;;4997189;28;20559;-79
2024/02/06 00:37:16;;;;;;;3.73;2.43;;;8.80;73.50;;;;;;4995244;28;20911;-79
2024/02/06 00:39:45;;;;;;;3.20;2.00;;;8.80;76.40;;;;;;4996688;28;20536;-79
2024/02/06 00:42:13;;;;;;;5.00;2.57;;;8.80;77.20;;;;;;4992538;28;20449;-79
2024/02/06 00:44:41;;;;;;;4.30;2.77;;;8.60;77.20;;;;;;4991398;28;20571;-79
2024/02/06 00:47:09;;;;;;;3.70;2.50;;;8.60;78.00;;;;;;4988168;28;20549;-79
2024/02/06 00:49:40;;;;;;;5.93;2.83;;;8.50;81.60;;;;;;4993343;28;20453;-80
2024/02/06 00:52:10;;;;;;;4.60;2.47;;;8.50;83.40;;;;;;4995067;28;21019;-77
2024/02/06 00:54:38;;;;;;;5.40;2.53;;;8.40;84.90;;;;;;4996868;28;20526;-79
2024/02/06 00:57:06;;;;;;;4.70;2.80;;;8.40;85.30;;;;;;4993247;28;20466;-79
2024/02/06 00:59:34;;;;;;;2.87;2.67;;;8.30;87.90;;;;;;4991698;28;20460;-78
2024/02/06 01:02:02;;;;;;;3.87;2.63;;;8.20;87.20;;;;;;4995645;28;20461;-80
2024/02/06 01:04:30;;;;;;;7.10;2.93;;;8.10;90.00;;;;;;4993699;28;20493;-78
2024/02/06 01:06:58;;;;;;;3.23;2.93;;;8.10;91.50;;;;;;4992831;28;20453;-78
2024/02/06 01:09:28;;;;;;;4.47;2.63;;;8.00;93.40;;;;;;4995306;28;20461;-80
2024/02/06 01:11:56;;;;;;;6.60;2.90;;;8.00;95.40;;;;;;4995606;28;20832;-78
2024/02/06 01:14:24;;;;;;;5.53;4.40;;;7.90;95.40;;;;;;5001004;28;20481;-78
2024/02/06 01:16:52;;;;;;;6.50;4.17;;;7.80;99.90;;;;;;4986392;28;20462;-78
2024/02/06 01:19:20;;;;;;;4.30;3.90;;;7.80;99.90;;;;;;4999886;28;20449;-78
2024/02/06 01:21:49;;;;;;;4.83;4.03;;;7.80;99.90;;;;;;5001105;28;21382;-81
2024/02/06 01:24:17;;;;;;;4.83;3.43;;;7.80;99.90;;;;;;4997284;28;21344;-79
2024/02/06 01:26:46;;;;;;;4.80;4.03;;;7.80;99.90;;;;;;4999154;28;20954;-78
2024/02/06 01:29:14;;;;;;;6.43;5.07;;;7.80;99.90;;;;;;4975960;28;20503;-79
2024/02/06 01:31:43;;;;;;;5.77;4.93;;;7.80;99.90;;;;;;4992839;28;20468;-77
2024/02/06 01:34:11;;;;;;;6.87;4.63;;;7.80;99.90;;;;;;5001126;28;20478;-80
2024/02/06 01:36:40;;;;;;;5.63;5.07;;;7.70;99.90;;;;;;4999409;28;20454;-79
2024/02/06 01:39:08;;;;;;;5.43;4.97;;;7.60;99.90;;;;;;4994762;28;21089;-79
2024/02/06 01:41:36;;;;;;;6.30;5.27;;;7.60;99.90;;;;;;4994825;28;20464;-79
2024/02/06 01:44:06;;;;;;;6.77;5.60;;;7.60;99.90;;;;;;5008513;28;20486;-80
2024/02/06 01:46:35;;;;;;;6.17;5.00;;;7.60;99.90;;;;;;4997091;28;20484;-79
2024/02/06 01:49:05;;;;;;;7.67;5.47;;;7.60;99.90;;;;;;4993425;28;20519;-81
2024/02/06 01:51:36;;;;;;;6.77;5.90;;;7.60;99.90;;;;;;5012765;28;20453;-80
2024/02/06 01:54:06;;;;;;;7.20;5.03;;;7.50;99.90;;;;;;4998710;28;20482;-80
2024/02/06 01:56:35;;;;;;;5.43;4.93;;;7.50;99.90;;;;;;4993396;28;20502;-78
2024/02/06 01:59:05;;;;;;;6.53;4.87;;;7.50;99.90;;;;;;4993805;28;20453;-79
2024/02/06 02:01:34;;;;;;;6.10;5.50;;;7.50;99.90;;;;;;4991540;28;20598;-79
2024/02/06 02:04:03;;;;;;;5.43;4.93;;;7.50;99.90;;;;;;4996639;28;20481;-80
2024/02/06 02:06:32;;;;;;;7.23;6.73;;;7.50;99.90;;;;;;4998774;28;20533;-80
2024/02/06 02:09:00;;;;;;;5.23;4.70;;;7.40;99.90;;;;;;4999210;28;20470;-83
2024/02/06 02:11:31;;;;;;;7.70;5.50;;;7.50;99.90;;;;;;4999280;28;20445;-81
2024/02/06 02:14:00;;;;;;;6.43;5.80;;;7.50;99.90;;;;;;5000907;28;20465;-80
2024/02/06 02:16:29;;;;;;;7.30;6.20;;;7.40;99.90;;;;;;4996461;28;20434;-79
2024/02/06 02:18:58;;;;;;;7.70;5.90;;;7.40;99.90;;;;;;4997779;28;20450;-80
2024/02/06 02:21:29;;;;;;;5.77;5.27;;;7.40;99.90;;;;;;4994875;28;20561;-81
2024/02/06 02:23:58;;;;;;;5.80;5.30;;;7.40;99.90;;;;;;5001989;28;20466;-79
2024/02/06 02:26:27;;;;;;;7.90;6.53;;;7.40;99.90;;;;;;5001190;28;21137;-81
2024/02/06 02:28:56;;;;;;;5.97;5.47;;;7.40;99.90;;;;;;4997207;28;21358;-80
2024/02/06 02:31:25;;;;;;;6.07;5.50;;;7.30;99.90;;;;;;4999443;28;20795;-78
2024/02/06 02:33:54;;;;;;;7.50;6.27;;;7.30;99.90;;;;;;4999894;28;20462;-80
2024/02/06 02:36:23;;;;;;;7.00;6.23;;;7.30;99.90;;;;;;4999482;28;20928;-79
2024/02/06 02:38:52;;;;;;;8.70;5.90;;;7.30;99.90;;;;;;4998192;28;20447;-77
2024/02/06 02:41:20;;;;;;;10.13;5.90;;;7.30;99.90;;;;;;4997547;28;20981;-78
2024/02/06 02:43:48;;;;;;;8.17;7.37;;;7.30;99.90;;;;;;4996652;28;21545;-77
2024/02/06 02:46:16;;;;;;;8.40;5.37;;;7.30;99.90;;;;;;4999065;28;20482;-79
2024/02/06 02:48:44;;;;;;;6.47;5.60;;;7.10;99.90;;;;;;5001597;28;20453;-78
2024/02/06 02:51:12;;;;;;;7.53;5.53;;;7.10;99.90;;;;;;4982840;28;20492;-79
2024/02/06 02:53:41;;;;;;;7.50;6.63;;;7.20;99.90;;;;;;4995697;28;20459;-78
2024/02/06 02:56:10;;;;;;;5.53;5.03;;;7.20;99.90;;;;;;4999489;28;21002;-78
2024/02/06 02:58:38;;;;;;;6.07;5.07;;;7.20;99.90;;;;;;4998823;28;20465;-81
2024/02/06 03:01:06;;;;;;;5.37;4.87;;;7.20;99.90;;;;;;5000351;28;20460;-80
2024/02/06 03:03:36;;;;;;;5.40;4.70;;;7.10;99.90;;;;;;4997822;28;20458;-81
2024/02/06 03:06:04;;;;;;;6.60;5.07;;;7.10;99.90;;;;;;5007251;28;20473;-79
2024/02/06 03:08:32;;;;;;;7.50;4.67;;;7.10;99.90;;;;;;5001264;28;20457;-79
2024/02/06 03:11:00;;;;;;;4.30;3.97;;;7.10;99.90;;;;;;4995762;28;20465;-78
2024/02/06 03:13:29;;;;;;;5.50;4.20;;;7.20;99.90;;;;;;4996839;28;20451;-78
2024/02/06 03:15:57;;;;;;;5.80;5.27;;;7.20;99.90;;;;;;4999649;28;21083;-80
2024/02/06 03:18:26;;;;;;;7.83;5.10;;;7.10;99.90;;;;;;4994263;28;20485;-80
2024/02/06 03:20:54;;;;;;;5.93;4.90;;;7.00;99.90;;;;;;4994043;28;20494;-79
2024/02/06 03:23:22;;;;;;;6.83;5.40;;;6.90;99.90;;;;;;4997666;28;20457;-79
2024/02/06 03:25:50;;;;;;;6.87;4.80;;;7.00;99.90;;;;;;4999282;28;20569;-79
2024/02/06 03:28:19;;;;;;;6.10;4.90;;;6.90;99.90;;;;;;4999788;28;20453;-78
2024/02/06 03:30:48;;;;;;;7.03;4.83;;;7.00;99.90;;;;;;4997467;28;20486;-79
2024/02/06 03:33:16;;;;;;;6.60;6.00;;;7.00;99.90;;;;;;4998227;28;20451;-79
2024/02/06 03:35:45;;;;;;;5.67;4.83;;;7.00;99.90;;;;;;4997930;28;20477;-79
2024/02/06 03:38:13;;;;;;;6.00;5.23;;;7.00;99.90;;;;;;4995314;28;20466;-78
2024/02/06 03:40:41;;;;;;;6.17;5.00;;;7.00;99.90;;;;;;4998322;28;20462;-78
2024/02/06 03:43:10;;;;;;;6.00;4.60;;;6.90;99.90;;;;;;4998823;28;20470;-79
2024/02/06 03:45:38;;;;;;;7.07;4.10;;;7.00;99.90;;;;;;4995098;28;20543;-79
2024/02/06 03:48:08;;;;;;;7.47;5.07;;;7.00;99.90;;;;;;4990637;28;20462;-78
2024/02/06 03:50:36;;;;;;;7.00;4.60;;;6.90;99.90;;;;;;4997919;28;21053;-79
2024/02/06 03:53:05;;;;;;;4.63;4.23;;;6.90;99.90;;;;;;4992846;28;20462;-78
2024/02/06 03:55:33;;;;;;;5.30;4.80;;;6.80;99.90;;;;;;4991256;28;22365;-78
2024/02/06 03:58:01;;;;;;;5.33;4.10;;;6.90;99.90;;;;;;4989059;28;20446;-79
2024/02/06 04:00:30;;;;;;;4.80;4.33;;;6.90;99.90;;;;;;4992727;28;20461;-79
2024/02/06 04:02:58;;;;;;;6.03;4.40;;;6.80;99.90;;;;;;4991125;28;20468;-78
2024/02/06 04:05:28;;;;;;;8.80;4.77;;;6.80;99.90;;;;;;4991687;28;21019;-79
2024/02/06 04:07:56;;;;;;;4.83;4.20;;;6.70;99.90;;;;;;4991886;28;20584;-78
2024/02/06 04:10:25;;;;;;;4.90;4.40;;;6.70;99.90;;;;;;4994432;28;21106;-79
2024/02/06 04:12:53;;;;;;;6.23;5.57;;;6.60;99.90;;;;;;4991756;28;20458;-80
2024/02/06 04:15:21;;;;;;;6.40;5.30;;;6.50;99.90;;;;;;4992544;28;20482;-82
2024/02/06 04:17:49;;;;;;;5.80;5.20;;;6.60;99.90;;;;;;4990669;28;20474;-80
2024/02/06 04:20:17;;;;;;;5.20;4.70;;;6.50;99.90;;;;;;4991597;28;20451;-80
2024/02/06 04:22:47;;;;;;;5.27;4.70;;;6.50;99.90;;;;;;4998068;28;20462;-80
2024/02/06 04:25:15;;;;;;;7.53;4.87;;;6.50;99.90;;;;;;4993313;28;20623;-81
2024/02/06 04:27:43;;;;;;;7.10;4.70;;;6.60;99.90;;;;;;4993440;28;20564;-79
2024/02/06 04:30:14;;;;;;;5.30;4.80;;;6.60;99.90;;;;;;4996400;28;20461;-79
2024/02/06 04:32:42;;;;;;;5.70;4.90;;;6.60;99.90;;;;;;4999016;28;20894;-80
2024/02/06 04:35:10;;;;;;;5.20;4.70;;;6.60;99.90;;;;;;4995870;28;20470;-78
2024/02/06 04:37:39;;;;;;;5.07;4.00;;;6.50;99.90;;;;;;4994933;28;20958;-78
2024/02/06 04:40:09;;;;;;;6.30;5.20;;;6.50;99.90;;;;;;4995721;28;20461;-79
2024/02/06 04:42:38;;;;;;;5.30;4.70;;;6.40;99.90;;;;;;4993188;28;20442;-78
2024/02/06 04:45:07;;;;;;;6.57;4.53;;;6.50;99.90;;;;;;4996303;28;21510;-78
2024/02/06 04:47:35;;;;;;;5.30;4.80;;;6.40;99.90;;;;;;4990196;28;20485;-81
2024/02/06 04:50:03;;;;;;;5.50;4.97;;;6.40;99.90;;;;;;4990530;28;20481;-81
2024/02/06 04:52:32;;;;;;;6.10;5.43;;;6.40;99.90;;;;;;4994077;28;20457;-78
2024/02/06 04:55:09;;;;;;;6.60;4.47;;;6.40;99.90;;;;;;4994931;28;20493;-80
2024/02/06 04:57:37;;;;;;;6.50;5.30;;;6.40;99.90;;;;;;4991336;28;20482;-79
2024/02/06 05:00:12;;;;;;;9.63;6.00;;;6.20;99.90;;;;;;4988693;28;21954;-81
2024/02/06 05:02:40;;;;;;;5.37;4.87;;;6.20;99.90;;;;;;4989902;28;20461;-78
2024/02/06 05:05:09;;;;;;;6.43;5.37;;;6.20;99.90;;;;;;4996196;28;20486;-78
2024/02/06 05:07:37;;;;;;;5.80;5.10;;;6.20;99.90;;;;;;4992755;28;20926;-78
2024/02/06 05:10:10;;;;;;;6.57;5.73;;;6.20;99.90;;;;;;4993373;28;20469;-78
2024/02/06 05:12:39;;;;;;;6.93;6.30;;;6.30;99.90;;;;;;4991107;28;20454;-81
2024/02/06 05:15:09;;;;;;;10.00;6.72;;;6.30;99.90;;;;;;4992264;28;20510;-79
2024/02/06 05:17:40;;;;;;;8.30;5.87;;;6.20;99.90;;;;;;4994586;28;20686;-78
2024/02/06 05:20:10;;;;;;;8.33;6.23;;;6.20;99.90;;;;;;4991038;28;21238;-78
2024/02/06 05:22:38;;;;;;;6.30;5.53;;;6.30;99.90;;;;;;4992673;28;20451;-78
2024/02/06 05:25:08;;;;;;;6.77;6.07;;;6.30;99.90;;;;;;4994718;28;20509;-80
2024/02/06 05:27:37;;;;;;;6.07;5.50;;;6.20;1.00;;;;;;4979484;28;20489;-77
2024/02/06 05:30:08;;;;;;;7.23;5.50;;;6.20;1.00;;;;;;4993522;28;20462;-78
2024/02/06 05:32:36;;;;;;;6.37;5.60;;;6.40;1.00;;;;;;4990026;28;20455;-78
2024/02/06 05:35:05;;;;;;;6.30;5.40;;;6.30;1.00;;;;;;4997030;28;20510;-80
2024/02/06 05:37:34;;;;;;;6.60;5.30;;;6.50;1.00;;;;;;4997881;28;20457;-78
2024/02/06 05:40:05;;;;;;;6.20;5.20;;;6.50;1.00;;;;;;5000333;28;20457;-78
2024/02/06 05:42:33;;;;;;;5.27;4.87;;;6.60;1.00;;;;;;5001287;28;20481;-78
2024/02/06 05:45:01;;;;;;;5.20;4.80;;;6.50;1.00;;;;;;4996316;28;20473;-82
2024/02/06 05:47:31;;;;;;;7.07;5.40;;;6.60;1.00;;;;;;4996341;28;20484;-80
2024/02/06 05:49:59;;;;;;;8.60;5.43;;;6.50;1.00;;;;;;4999182;28;20454;-79
2024/02/06 05:52:28;;;;;;;6.20;5.60;;;6.40;1.00;;;;;;5010526;28;20457;-78
2024/02/06 05:54:56;;;;;;;5.60;5.10;;;6.40;1.00;;;;;;4997460;28;20477;-79
2024/02/06 05:57:24;;;;;;;6.43;4.47;;;6.70;1.00;;;;;;5000863;28;20438;-78
2024/02/06 05:59:52;;;;;;;5.40;4.93;;;7.00;99.90;;;;;;5002431;28;20450;-78
2024/02/06 06:02:20;;;;;;;5.20;4.80;;;7.00;99.90;;;;;;4997656;28;20474;-78
2024/02/06 06:04:50;;;;;;;5.53;4.40;;;6.80;99.90;;;;;;4992541;28;21225;-80
2024/02/06 06:07:18;;;;;;;5.30;4.80;;;6.80;99.90;;;;;;4995530;28;21061;-79
2024/02/06 06:09:46;;;;;;;7.03;5.00;;;6.80;99.90;;;;;;4998094;28;20473;-79
2024/02/06 06:12:15;;;;;;;6.60;4.23;;;6.70;99.90;;;;;;4992096;28;20461;-80
2024/02/06 06:14:43;;;;;;;7.07;6.20;;;6.70;99.90;;;;;;4993781;28;21491;-79
2024/02/06 06:17:11;;;;;;;5.40;4.50;;;6.80;99.90;;;;;;4995154;28;21167;-80
2024/02/06 06:19:39;;;;;;;4.07;3.67;;;7.10;99.90;;;;;;4998449;28;21294;-78
2024/02/06 06:22:09;;;;;;;5.43;3.77;;;7.20;99.90;;;;;;4998701;28;20462;-78
2024/02/06 06:24:37;;;;;;;4.60;3.77;;;6.90;99.90;;;;;;4998157;28;21161;-79
2024/02/06 06:27:05;;;;;;;4.10;3.83;;;6.90;99.90;;;;;;4993543;28;20454;-79
2024/02/06 06:29:34;;;;;;;8.77;3.80;;;7.00;99.90;;;;;;4995053;28;20551;-77
2024/02/06 06:32:03;;;;;;;7.33;4.27;;;6.70;99.90;;;;;;4998295;28;20823;-78
2024/02/06 06:34:31;;;;;;;4.47;3.60;;;6.70;99.90;;;;;;5001204;28;20488;-79
2024/02/06 06:36:59;;;;;;;4.47;4.00;;;6.90;99.90;;;;;;5000441;28;20457;-78
2024/02/06 06:39:29;;;;;;;6.67;4.20;;;6.80;99.90;;;;;;5000200;28;20442;-79
2024/02/06 06:41:57;;;;;;;4.40;3.60;;;6.80;99.90;;;;;;4996193;28;20458;-81
2024/02/06 06:44:25;;;;;;;5.83;4.17;;;6.90;99.90;;;;;;4994889;28;20469;-79
2024/02/06 06:46:53;;;;;;;7.70;4.50;;;7.00;99.90;;;;;;4995525;28;20502;-78
2024/02/06 06:49:22;;;;;;;5.73;3.40;;;6.90;99.90;;;;;;4995367;28;20475;-79
2024/02/06 06:51:50;;;;;;;5.33;4.30;;;6.80;99.90;;;;;;4993899;28;20462;-78
2024/02/06 06:54:18;;;;;;;6.93;3.77;;;7.00;1.00;;;;;;4996322;28;20493;-77
2024/02/06 06:56:48;;;;;;;4.07;3.77;;;7.00;1.00;;;;;;4998607;28;20533;-79
2024/02/06 06:59:16;;;;;;;4.80;3.70;;;6.90;1.00;;;;;;4996999;28;20451;-77
2024/02/06 07:01:45;;;;;;;4.00;3.60;;;6.80;1.00;;;;;;5000016;28;20460;-78
2024/02/06 07:04:13;;;;;;;4.87;4.40;;;6.60;99.90;;;;;;4995856;28;20529;-77
2024/02/06 07:06:41;;;;;;;3.47;3.10;;;6.70;1.00;;;;;;4995948;28;20517;-78
2024/02/06 07:09:10;;;;;;;6.90;4.30;;;6.70;1.00;;;;;;4993071;28;20558;-79
2024/02/06 07:11:38;;;;;;;3.87;3.57;;;6.80;1.00;;;;;;4989903;28;21023;-78
2024/02/06 07:14:07;;;;;;;4.13;3.40;;;6.90;99.90;;;;;;4987705;28;20461;-78
2024/02/06 07:16:35;;;;;;;3.47;3.17;;;6.90;99.90;;;;;;4991423;28;20946;-78
2024/02/06 07:19:04;;;;;;;4.83;4.13;;;7.00;99.90;;;;;;4996330;28;20439;-78
2024/02/06 07:21:32;;;;;;;4.40;3.80;;;7.00;99.90;;;;;;4994638;28;20480;-80
2024/02/06 07:24:00;;;;;;;4.77;3.40;;;7.10;99.90;;;;;;4991876;28;20455;-79
2024/02/06 07:26:29;;;;;;;9.60;4.50;;;7.00;99.90;;;;;;4990308;28;20555;-80
2024/02/06 07:28:57;;;;;;;3.90;3.60;;;7.10;99.90;;;;;;4991723;28;20517;-79
2024/02/06 07:31:26;;;;;;;4.00;3.60;;;7.10;99.90;;;;;;4994332;28;20442;-79
2024/02/06 07:33:54;;;;;;;3.87;3.47;;;7.10;99.90;;;;;;4995242;28;20450;-80
2024/02/06 07:36:24;;;;;;;6.97;4.10;;;7.10;99.90;;;;;;4997345;28;20454;-79
2024/02/06 07:38:52;;;;;;;5.47;3.67;;;7.10;99.90;;;;;;4996074;28;20496;-79
2024/02/06 07:41:20;;;;;;;4.33;3.67;;;7.00;99.90;;;;;;4996127;28;21068;-81
2024/02/06 07:43:48;;;;;;;4.47;3.60;;;7.20;99.90;;;;;;4997729;28;20449;-79
2024/02/06 07:46:17;;;;;;;4.03;3.20;;;7.10;99.90;;;;;;4997540;28;20465;-80
2024/02/06 07:48:47;;;;;;;4.00;3.17;;;7.20;99.90;;;;;;4996934;28;20474;-79
2024/02/06 07:51:15;;;;;;;5.13;4.03;;;7.20;99.90;;;;;;4996637;28;20492;-78
2024/02/06 07:53:43;;;;;;;3.60;3.30;;;7.30;1.00;;;;;;4997342;28;20457;-81
2024/02/06 07:56:11;;;;;;;4.50;3.60;;;7.30;99.90;;;;;;4993251;28;21010;-79
2024/02/06 07:58:39;;;;;;;4.10;3.70;;;7.30;99.90;;;;;;4990100;28;20462;-78
2024/02/06 08:01:07;;;;;;;4.70;3.80;;;7.00;99.90;;;;;;4994204;28;20468;-80
2024/02/06 08:03:35;;;;;;;4.73;3.53;;;7.20;99.90;;;;;;4995900;28;20653;-79
2024/02/06 08:06:06;;;;;;;5.03;3.47;;;7.10;99.90;;;;;;4993142;28;20467;-80
2024/02/06 08:08:35;;;;;;;5.00;3.67;;;7.30;99.90;;;;;;4993450;28;21038;-81
2024/02/06 08:11:03;;;;;;;5.47;3.90;;;7.30;99.90;;;;;;4999975;28;21009;-78
2024/02/06 08:13:31;;;;;;;4.47;3.30;;;7.30;99.90;;;;;;4997151;28;20449;-79
2024/02/06 08:15:59;;;;;;;4.60;3.30;;;7.30;99.90;;;;;;4995333;28;20564;-79
2024/02/06 08:18:28;;;;;;;3.30;3.10;;;7.30;99.90;;;;;;4996505;28;20485;-79
2024/02/06 08:20:56;;;;;;;5.00;3.07;;;7.40;99.90;;;;;;4993656;28;20517;-79
2024/02/06 08:23:25;;;;;;;4.60;4.20;;;7.40;99.90;;;;;;4993797;28;20456;-80
2024/02/06 08:25:53;;;;;;;4.60;3.90;;;7.50;99.90;;;;;;4993374;28;20931;-79
2024/02/06 08:28:21;;;;;;;3.53;2.93;;;7.40;99.90;;;;;;4994188;28;20537;-78
2024/02/06 08:30:50;;;;;;;6.80;3.00;;;7.40;99.90;;;;;;4992963;28;20459;-78
2024/02/06 08:33:19;;;;;;;6.30;3.50;;;7.40;99.90;;;;;;4990339;28;20465;-78
2024/02/06 08:35:52;;;;;;;4.97;2.93;;;7.50;99.90;;;;;;4988369;28;20478;-78
2024/02/06 08:38:20;;;;;;;4.63;3.50;;;7.60;99.90;;;;;;4994407;28;20465;-80
2024/02/06 08:40:50;;;;;;;3.30;3.10;;;7.50;99.90;;;;;;4992150;28;20520;-79
2024/02/06 08:43:18;;;;;;;5.33;3.10;;;7.60;99.90;;;;;;4992660;28;20486;-79
2024/02/06 08:45:49;;;;;;;4.00;3.17;;;7.50;99.90;;;;;;4990854;28;20532;-80
2024/02/06 08:48:18;;;;;;;3.90;3.20;;;7.60;99.90;;;;;;4994281;28;20572;-78
2024/02/06 08:50:49;;;;;;;3.83;2.70;;;7.60;99.90;;;;;;4994418;28;20533;-78
2024/02/06 08:53:18;;;;;;;6.30;3.90;;;7.60;99.90;;;;;;4994743;28;20451;-78
2024/02/06 08:55:46;;;;;;;3.07;2.80;;;7.60;99.90;;;;;;4993187;28;20474;-79
2024/02/06 08:58:15;;;;;;;3.80;2.90;;;7.70;99.90;;;;;;4991171;28;21017;-78
2024/02/06 09:00:44;;;;;;;6.13;2.93;;;7.70;99.90;;;;;;4993866;28;20457;-79
2024/02/06 09:03:13;;;;;;;5.50;3.57;;;7.60;99.90;;;;;;4992840;28;20964;-81
2024/02/06 09:05:41;;;;;;;3.73;3.10;;;7.70;99.90;;;;;;4997400;28;20527;-79
2024/02/06 09:08:11;;;;;;;3.10;2.80;;;7.70;1.00;;;;;;4996282;28;21237;-80
2024/02/06 09:10:40;;;;;;;3.00;2.70;;;7.70;99.90;;;;;;5000656;28;21006;-80
2024/02/06 09:13:08;;;;;;;3.07;2.80;;;7.80;99.90;;;;;;4998038;28;20473;-79
2024/02/06 09:15:38;;;;;;;2.93;2.63;;;7.90;99.90;;;;;;4999886;28;20502;-79
2024/02/06 09:18:07;;;;;;;3.97;3.63;;;8.00;99.90;;;;;;4998962;28;20461;-78
2024/02/06 09:20:36;;;;;;;3.70;2.53;;;8.00;99.90;;;;;;5000559;28;20653;-80
2024/02/06 09:23:05;;;;;;;3.67;2.73;;;8.00;99.90;;;;;;4997819;28;20459;-78
2024/02/06 09:25:33;;;;;;;3.37;2.50;;;7.90;99.90;;;;;;5000015;28;20577;-78
2024/02/06 09:28:03;;;;;;;3.83;2.47;;;8.10;99.90;;;;;;4998986;28;20494;-78
2024/02/06 09:30:31;;;;;;;2.03;1.93;;;8.10;99.90;;;;;;4998853;28;20486;-79
2024/02/06 09:33:01;;;;;;;2.47;2.27;;;8.10;99.90;;;;;;4998562;28;20446;-78
2024/02/06 09:35:29;;;;;;;2.57;2.37;;;8.40;99.90;;;;;;5000114;28;20470;-77
2024/02/06 09:37:57;;;;;;;2.97;2.63;;;8.40;99.90;;;;;;4998515;28;20939;-78
2024/02/06 09:40:26;;;;;;;2.43;2.00;;;8.50;99.90;;;;;;4999999;28;20547;-79
2024/02/06 09:42:55;;;;;;;2.10;1.90;;;8.50;99.90;;;;;;5000421;28;20462;-78
2024/02/06 09:45:23;;;;;;;2.13;1.93;;;8.50;99.90;;;;;;4999980;28;20600;-78
2024/02/06 09:47:51;;;;;;;1.90;1.80;;;8.60;99.90;;;;;;4996421;28;20460;-78
2024/02/06 09:50:21;;;;;;;1.70;1.60;;;8.50;99.90;;;;;;4999232;28;21007;-79
2024/02/06 09:52:51;;;;;;;1.97;1.60;;;8.40;99.90;;;;;;4997943;28;20465;-79
2024/02/06 09:55:22;;;;;;;1.43;1.33;;;8.50;99.90;;;;;;4998096;28;20478;-80
2024/02/06 09:57:51;;;;;;;1.50;1.40;;;8.60;99.90;;;;;;4999823;28;20458;-78
2024/02/06 10:00:21;;;;;;;1.90;1.57;;;8.80;99.90;;;;;;4997482;28;20497;-81
2024/02/06 10:02:51;;;;;;;2.30;2.03;;;9.10;99.90;;;;;;4998002;28;20462;-79
2024/02/06 10:05:28;;;;;;;1.40;1.30;;;9.20;99.90;;;;;;4999077;28;20478;-80
2024/02/06 10:07:57;;;;;;;1.53;1.43;;;9.20;99.90;;;;;;4997947;28;20461;-79
2024/02/06 10:10:26;;;;;;;1.33;1.30;;;9.10;99.90;;;;;;4997737;28;20491;-80
2024/02/06 10:12:55;;;;;;;2.50;1.60;;;9.00;99.90;;;;;;4996138;28;21117;-78
2024/02/06 10:15:23;;;;;;;1.83;1.73;;;8.90;99.90;;;;;;4998046;28;20481;-81
2024/02/06 10:17:56;;;;;;;1.83;1.73;;;8.90;99.90;;;;;;4997548;28;20893;-78
2024/02/06 10:20:25;;;;;;;1.80;1.70;;;8.90;99.90;;;;;;4998205;28;20488;-79
2024/02/06 10:22:55;;;;;;;2.30;1.60;;;8.90;99.90;;;;;;4982254;28;20446;-79
2024/02/06 10:25:25;;;;;;;2.20;1.43;;;8.80;99.90;;;;;;4996703;28;20472;-80
2024/02/06 10:27:57;;;;;;;4.13;1.67;;;8.90;99.90;;;;;;4993744;28;20472;-79
2024/02/06 10:30:26;;;;;;;1.80;1.70;;;8.90;99.90;;;;;;4998063;28;20481;-77
2024/02/06 10:32:54;;;;;;;1.80;1.70;;;8.90;99.90;;;;;;4997504;28;20457;-78
2024/02/06 10:35:24;;;;;;;2.27;2.17;;;9.00;99.90;;;;;;4997031;28;20502;-79
2024/02/06 10:37:54;;;;;;;5.30;2.00;;;9.10;99.90;;;;;;4997788;28;20458;-78
2024/02/06 10:40:22;;;;;;;1.70;1.60;;;9.10;99.90;;;;;;4994389;28;20450;-80
2024/02/06 10:42:50;;;;;;;1.60;1.50;;;9.10;99.90;;;;;;4996806;28;20463;-78
2024/02/06 10:45:39;;;;;;;2.10;1.70;;;9.10;99.90;;;;;;4997512;28;20501;-78
2024/02/06 10:48:08;;;;;;;2.10;1.63;;;9.20;99.90;;;;;;4997319;28;20979;-79
2024/02/06 10:50:37;;;;;;;1.83;1.73;;;9.20;99.90;;;;;;4995943;28;20493;-78
2024/02/06 10:53:06;;;;;;;2.10;1.90;;;9.20;99.90;;;;;;4995595;28;20537;-78
2024/02/06 10:55:35;;;;;;;2.00;1.80;;;9.20;99.90;;;;;;4995564;28;20469;-78
2024/02/06 10:58:07;;;;;;;1.80;1.70;;;9.20;99.90;;;;;;4997223;28;20463;-78
2024/02/06 11:00:39;;;;;;;2.10;2.00;;;9.10;99.90;;;;;;4999106;28;20494;-81
2024/02/06 11:03:10;;;;;;;1.93;1.70;;;9.20;99.90;;;;;;5007667;28;20465;-81
2024/02/06 11:05:45;;;;;;;1.80;1.70;;;9.30;99.90;;;;;;5009489;28;22022;-83
2024/02/06 11:08:19;;;;;;;2.13;1.80;;;9.40;99.90;;;;;;5005143;28;20460;-83
2024/02/06 11:10:52;;;;;;;4.57;2.27;;;9.50;99.90;;;;;;5006360;28;20504;-81
2024/02/06 11:13:24;;;;;;;1.80;1.60;;;9.60;99.90;;;;;;5005281;28;20545;-82
2024/02/06 11:15:53;;;;;;;1.83;1.73;;;10.00;99.90;;;;;;5007908;28;20573;-81
2024/02/06 11:18:28;;;;;;;2.03;1.93;;;10.00;99.90;;;;;;5001996;28;20472;-80
2024/02/06 11:21:00;;;;;;;2.53;2.03;;;10.00;99.90;;;;;;5007466;28;20488;-85
2024/02/06 11:23:31;;;;;;;4.27;2.10;;;9.90;99.90;;;;;;5005481;28;20466;-82
2024/02/06 11:25:59;;;;;;;1.93;1.83;;;9.90;99.90;;;;;;4994093;28;20568;-78
2024/02/06 11:28:27;;;;;;;4.10;1.70;;;9.80;99.90;;;;;;4994411;28;20458;-78
2024/02/06 11:30:59;;;;;;;2.50;1.63;;;9.70;99.90;;;;;;4993729;28;20882;-78
2024/02/06 11:33:31;;;;;;;2.50;1.70;;;9.70;99.90;;;;;;4990877;28;20525;-78
2024/02/06 11:36:11;;;;;;;1.97;1.47;;;9.60;99.90;;;;;;4991590;28;20597;-79
2024/02/06 11:38:41;;;;;;;1.80;1.53;;;9.60;99.90;;;;;;4989528;28;20487;-77
2024/02/06 11:41:11;;;;;;;1.80;1.70;;;9.60;99.90;;;;;;4993262;28;20453;-78
2024/02/06 11:43:41;;;;;;;2.80;1.90;;;9.60;99.90;;;;;;4992643;28;20515;-79
2024/02/06 11:46:09;;;;;;;1.83;1.73;;;9.60;99.90;;;;;;4986789;28;20482;-81
2024/02/06 11:48:37;;;;;;;1.60;1.50;;;9.50;99.90;;;;;;4991683;28;21034;-83
2024/02/06 11:51:06;;;;;;;2.40;2.00;;;9.50;99.90;;;;;;4997756;28;20469;-80
2024/02/06 11:53:34;;;;;;;2.33;2.13;;;9.60;99.90;;;;;;4990843;28;20544;-81
2024/02/06 11:56:05;;;;;;;2.27;1.67;;;9.60;99.90;;;;;;4993917;28;20588;-79
2024/02/06 11:58:36;;;;;;;1.73;1.63;;;9.60;99.90;;;;;;4994363;28;20454;-78
2024/02/06 12:01:06;;;;;;;2.50;1.47;;;9.60;99.90;;;;;;4987422;28;20454;-81
2024/02/06 12:03:35;;;;;;;2.03;1.40;;;9.60;99.90;;;;;;4992105;28;20457;-78
2024/02/06 12:06:06;;;;;;;3.47;1.57;;;9.60;99.90;;;;;;4972772;28;20489;-80
2024/02/06 12:08:34;;;;;;;2.83;1.90;;;9.50;99.90;;;;;;4990661;28;20481;-78
2024/02/06 12:11:06;;;;;;;2.90;1.83;;;9.50;99.90;;;;;;4995615;28;20477;-81
2024/02/06 12:13:37;;;;;;;3.83;1.67;;;9.40;99.90;;;;;;4992874;28;20457;-80
2024/02/06 12:16:06;;;;;;;1.60;1.50;;;9.40;99.90;;;;;;4993447;28;20547;-80
2024/02/06 12:18:35;;;;;;;2.67;1.70;;;9.40;99.90;;;;;;4973142;28;20458;-78
2024/02/06 12:21:04;;;;;;;3.67;2.10;;;9.30;99.90;;;;;;4990494;28;20580;-81
2024/02/06 12:23:32;;;;;;;2.40;1.90;;;9.50;99.90;;;;;;4994116;28;20692;-79
2024/02/06 12:26:01;;;;;;;2.50;2.17;;;9.40;99.90;;;;;;4992540;28;20490;-80
2024/02/06 12:28:31;;;;;;;3.07;2.20;;;9.40;99.90;;;;;;4997508;28;20486;-78
2024/02/06 12:31:01;;;;;;;2.30;1.60;;;9.50;99.90;;;;;;4994172;28;20620;-80
2024/02/06 12:33:34;;;;;;;2.00;1.67;;;9.50;99.90;;;;;;4996203;28;20474;-78
2024/02/06 12:36:02;;;;;;;1.73;1.60;;;9.60;99.90;;;;;;4996059;28;20505;-79
2024/02/06 12:38:31;;;;;;;3.10;1.83;;;9.60;99.90;;;;;;4996135;28;21438;-80
2024/02/06 12:41:00;;;;;;;1.87;1.53;;;9.70;99.90;;;;;;4997102;28;20450;-78
2024/02/06 12:43:50;;;;;;;3.17;1.80;;;9.60;99.90;;;;;;4998098;28;20847;-81
2024/02/06 12:46:18;;;;;;;1.80;1.70;;;9.60;99.90;;;;;;5003135;28;21133;-80
2024/02/06 12:48:49;;;;;;;5.47;3.30;;;9.60;99.90;;;;;;5000473;28;20481;-79
2024/02/06 12:51:19;;;;;;;2.77;1.60;;;9.70;99.90;;;;;;4983306;28;20478;-79
2024/02/06 12:53:47;;;;;;;2.60;1.70;;;9.60;99.90;;;;;;4998928;28;20453;-78
2024/02/06 12:56:15;;;;;;;2.10;1.60;;;9.70;99.90;;;;;;4996968;28;20555;-79
2024/02/06 12:58:45;;;;;;;4.23;1.60;;;9.80;99.90;;;;;;4999530;28;20458;-78
2024/02/06 13:01:23;;;;;;;4.90;1.70;;;9.80;99.90;;;;;;5000018;28;20865;-78
2024/02/06 13:03:57;;;;;;;5.97;1.90;;;9.90;99.90;;;;;;5001432;28;20460;-78
2024/02/06 13:06:35;;;;;;;3.20;2.47;;;9.90;99.90;;;;;;4998161;28;20453;-80
2024/02/06 13:09:04;;;;;;;4.73;1.70;;;9.90;99.90;;;;;;4997199;28;20473;-79